Accueil
METAR-TAF:

METAR-TAF

Aéroports :

Mönchengladbach, Allemagne

latitude: 51-13-49N, longitude: 006-30-16E, altitude: 38 m

Observation

Le bulletin a été fait il y a 2 heures et 34 minutes, à 21:20 UTC
Vent 5 kt de sud
Température 11°C
Humidité 82%
Pression 1011 hPa
Visibilité 10 km ou plus

METAR: EDLN 212120Z AUTO 18005KT 9999 // BKN075/// 11/08 Q1011

Heure: 00:54 (23:54 UTC)

Prévision

Le bulletin a été fait il y a 6 heures et 54 minutes, à 17:00 UTC
Prévision valable du 21 à 18 UTC au 22 à 03 UTC
Vent 8 kt de sud/sud-ouest
Visibilité 10 km ou plus
Nuages fragmentés à une hauteur de 4000 ft

TAF: EDLN 211700Z 2118/2203 20008KT 9999 BKN040

Observations et prévisions météorologiques de plus de 4000 aéroports (messages METAR et TAF).

Les stations disponibles sont représentées par des disques jaunes et rouges sur la carte.

Passer la souris dessus pour voir le nom de la station.

Cliquer dessus pour voir les observations et prévisions météorologiques.

Pour changer de carte: cliquez sur les boutons verts avec une croix noire pour zoomer, sur le bouton vert avec un tiret pour effectuer un zoom arrière, ou sur les flèches vertes pour les cartes adjacentes.


METAR-TAF: